sensor_id;sensor_type;location;lat;lon;timestamp;temperature;humidity
22006;DHT22;11167;46.988;15.470;2022-11-15T00:00:28;11.90;86.70
22006;DHT22;11167;46.988;15.470;2022-11-15T00:02:29;11.90;86.20
22006;DHT22;11167;46.988;15.470;2022-11-15T00:04:30;11.90;86.40
22006;DHT22;11167;46.988;15.470;2022-11-15T00:06:32;11.90;86.30
22006;DHT22;11167;46.988;15.470;2022-11-15T00:08:33;11.90;86.30
22006;DHT22;11167;46.988;15.470;2022-11-15T00:10:35;11.90;86.30
22006;DHT22;11167;46.988;15.470;2022-11-15T00:12:36;11.90;86.20
22006;DHT22;11167;46.988;15.470;2022-11-15T00:14:37;11.80;86.20
22006;DHT22;11167;46.988;15.470;2022-11-15T00:16:38;11.80;86.20
22006;DHT22;11167;46.988;15.470;2022-11-15T00:18:39;11.80;86.20
22006;DHT22;11167;46.988;15.470;2022-11-15T00:20:41;11.80;86.20
22006;DHT22;11167;46.988;15.470;2022-11-15T00:22:43;11.80;86.20
22006;DHT22;11167;46.988;15.470;2022-11-15T00:24:44;11.80;86.20
22006;DHT22;11167;46.988;15.470;2022-11-15T00:26:45;11.80;86.20
22006;DHT22;11167;46.988;15.470;2022-11-15T00:28:47;11.80;86.20
22006;DHT22;11167;46.988;15.470;2022-11-15T00:30:48;11.80;86.30
22006;DHT22;11167;46.988;15.470;2022-11-15T00:32:49;11.80;86.20
22006;DHT22;11167;46.988;15.470;2022-11-15T00:34:51;11.80;86.20
22006;DHT22;11167;46.988;15.470;2022-11-15T00:36:52;11.80;86.20
22006;DHT22;11167;46.988;15.470;2022-11-15T00:38:53;11.70;86.20
22006;DHT22;11167;46.988;15.470;2022-11-15T00:40:54;11.80;86.20
22006;DHT22;11167;46.988;15.470;2022-11-15T00:42:55;11.70;86.80
22006;DHT22;11167;46.988;15.470;2022-11-15T00:44:57;11.70;86.20
22006;DHT22;11167;46.988;15.470;2022-11-15T00:46:58;11.70;86.60
22006;DHT22;11167;46.988;15.470;2022-11-15T00:48:59;11.70;87.00
22006;DHT22;11167;46.988;15.470;2022-11-15T00:51:00;11.70;86.20
22006;DHT22;11167;46.988;15.470;2022-11-15T00:53:01;11.70;86.20
22006;DHT22;11167;46.988;15.470;2022-11-15T00:55:03;11.70;86.20
22006;DHT22;11167;46.988;15.470;2022-11-15T00:57:04;11.70;86.20
22006;DHT22;11167;46.988;15.470;2022-11-15T00:59:05;11.70;86.20
22006;DHT22;11167;46.988;15.470;2022-11-15T01:01:08;11.70;86.20
22006;DHT22;11167;46.988;15.470;2022-11-15T01:03:10;11.70;86.20
22006;DHT22;11167;46.988;15.470;2022-11-15T01:05:11;11.70;86.30
22006;DHT22;11167;46.988;15.470;2022-11-15T01:07:12;11.60;86.60
22006;DHT22;11167;46.988;15.470;2022-11-15T01:09:13;11.60;86.20
22006;DHT22;11167;46.988;15.470;2022-11-15T01:11:14;11.60;86.20
22006;DHT22;11167;46.988;15.470;2022-11-15T01:13:16;11.60;86.20
22006;DHT22;11167;46.988;15.470;2022-11-15T01:15:17;11.60;86.20
22006;DHT22;11167;46.988;15.470;2022-11-15T01:17:18;11.60;86.20
22006;DHT22;11167;46.988;15.470;2022-11-15T01:19:19;11.60;86.30
22006;DHT22;11167;46.988;15.470;2022-11-15T01:21:21;11.60;86.40
22006;DHT22;11167;46.988;15.470;2022-11-15T01:23:22;11.60;86.30
22006;DHT22;11167;46.988;15.470;2022-11-15T01:25:23;11.60;86.30
22006;DHT22;11167;46.988;15.470;2022-11-15T01:27:24;11.60;86.30
22006;DHT22;11167;46.988;15.470;2022-11-15T01:29:25;11.60;86.40
22006;DHT22;11167;46.988;15.470;2022-11-15T01:31:27;11.60;86.40
22006;DHT22;11167;46.988;15.470;2022-11-15T01:33:28;11.60;86.30
22006;DHT22;11167;46.988;15.470;2022-11-15T01:35:30;11.60;86.40
22006;DHT22;11167;46.988;15.470;2022-11-15T01:37:31;11.60;86.40
22006;DHT22;11167;46.988;15.470;2022-11-15T01:39:33;11.60;86.40
22006;DHT22;11167;46.988;15.470;2022-11-15T01:41:34;11.60;86.40
22006;DHT22;11167;46.988;15.470;2022-11-15T01:43:36;11.50;86.30
22006;DHT22;11167;46.988;15.470;2022-11-15T01:45:38;11.50;86.30
22006;DHT22;11167;46.988;15.470;2022-11-15T01:47:42;11.50;86.30
22006;DHT22;11167;46.988;15.470;2022-11-15T01:49:49;11.50;86.30
22006;DHT22;11167;46.988;15.470;2022-11-15T01:51:48;11.50;86.30
22006;DHT22;11167;46.988;15.470;2022-11-15T01:53:52;11.50;86.30
22006;DHT22;11167;46.988;15.470;2022-11-15T01:55:54;11.50;86.30
22006;DHT22;11167;46.988;15.470;2022-11-15T01:57:59;11.50;86.40
22006;DHT22;11167;46.988;15.470;2022-11-15T02:00:03;11.50;86.40
22006;DHT22;11167;46.988;15.470;2022-11-15T02:02:05;11.50;87.20
22006;DHT22;11167;46.988;15.470;2022-11-15T02:04:15;11.50;86.40
22006;DHT22;11167;46.988;15.470;2022-11-15T02:06:18;11.50;86.40
22006;DHT22;11167;46.988;15.470;2022-11-15T02:08:19;11.40;86.40
22006;DHT22;11167;46.988;15.470;2022-11-15T02:10:24;11.40;86.30
22006;DHT22;11167;46.988;15.470;2022-11-15T02:12:25;11.40;86.40
22006;DHT22;11167;46.988;15.470;2022-11-15T02:14:27;11.40;86.40
22006;DHT22;11167;46.988;15.470;2022-11-15T02:25:39;11.40;86.40
22006;DHT22;11167;46.988;15.470;2022-11-15T02:30:18;11.30;86.40
22006;DHT22;11167;46.988;15.470;2022-11-15T02:32:21;11.30;86.40
22006;DHT22;11167;46.988;15.470;2022-11-15T02:34:29;11.30;86.40
22006;DHT22;11167;46.988;15.470;2022-11-15T02:41:11;11.30;86.50
22006;DHT22;11167;46.988;15.470;2022-11-15T02:43:16;11.30;86.50
22006;DHT22;11167;46.988;15.470;2022-11-15T02:45:43;11.30;86.50
22006;DHT22;11167;46.988;15.470;2022-11-15T02:47:43;11.30;86.50
22006;DHT22;11167;46.988;15.470;2022-11-15T02:49:58;11.30;86.50
22006;DHT22;11167;46.988;15.470;2022-11-15T02:51:56;11.30;86.50
22006;DHT22;11167;46.988;15.470;2022-11-15T02:53:57;11.30;86.60
22006;DHT22;11167;46.988;15.470;2022-11-15T02:55:59;11.30;86.50
22006;DHT22;11167;46.988;15.470;2022-11-15T02:58:22;11.30;86.60
22006;DHT22;11167;46.988;15.470;2022-11-15T03:00:21;11.30;86.50
22006;DHT22;11167;46.988;15.470;2022-11-15T03:04:55;11.20;86.50
22006;DHT22;11167;46.988;15.470;2022-11-15T03:11:22;11.20;86.50
22006;DHT22;11167;46.988;15.470;2022-11-15T03:13:36;11.20;86.60
22006;DHT22;11167;46.988;15.470;2022-11-15T03:15:48;11.20;86.50
22006;DHT22;11167;46.988;15.470;2022-11-15T03:18:00;11.20;86.60
22006;DHT22;11167;46.988;15.470;2022-11-15T03:20:01;11.20;86.50
22006;DHT22;11167;46.988;15.470;2022-11-15T03:22:06;11.20;86.50
22006;DHT22;11167;46.988;15.470;2022-11-15T03:24:09;11.20;86.50
22006;DHT22;11167;46.988;15.470;2022-11-15T03:26:14;11.20;86.60
22006;DHT22;11167;46.988;15.470;2022-11-15T03:28:32;11.10;86.50
22006;DHT22;11167;46.988;15.470;2022-11-15T03:30:32;11.10;86.50
22006;DHT22;11167;46.988;15.470;2022-11-15T03:32:38;11.10;86.50
22006;DHT22;11167;46.988;15.470;2022-11-15T03:34:48;11.20;86.60
22006;DHT22;11167;46.988;15.470;2022-11-15T03:36:49;11.10;86.60
22006;DHT22;11167;46.988;15.470;2022-11-15T03:38:58;11.10;86.50
22006;DHT22;11167;46.988;15.470;2022-11-15T03:41:01;11.10;86.60
22006;DHT22;11167;46.988;15.470;2022-11-15T03:43:24;11.10;86.60
22006;DHT22;11167;46.988;15.470;2022-11-15T03:45:19;11.10;86.50
22006;DHT22;11167;46.988;15.470;2022-11-15T03:47:45;11.10;86.60
22006;DHT22;11167;46.988;15.470;2022-11-15T03:49:52;11.10;86.60
22006;DHT22;11167;46.988;15.470;2022-11-15T03:51:56;11.10;86.60
22006;DHT22;11167;46.988;15.470;2022-11-15T03:53:58;11.10;86.60
22006;DHT22;11167;46.988;15.470;2022-11-15T03:55:59;11.10;86.60
22006;DHT22;11167;46.988;15.470;2022-11-15T03:58:01;11.10;87.50
22006;DHT22;11167;46.988;15.470;2022-11-15T04:00:03;11.10;86.60
22006;DHT22;11167;46.988;15.470;2022-11-15T04:02:05;11.10;86.60
22006;DHT22;11167;46.988;15.470;2022-11-15T04:04:06;11.10;86.60
22006;DHT22;11167;46.988;15.470;2022-11-15T04:06:07;11.10;86.60
22006;DHT22;11167;46.988;15.470;2022-11-15T04:08:08;11.10;87.10
22006;DHT22;11167;46.988;15.470;2022-11-15T04:10:12;11.10;86.60
22006;DHT22;11167;46.988;15.470;2022-11-15T04:12:14;11.10;86.60
22006;DHT22;11167;46.988;15.470;2022-11-15T04:14:17;11.10;86.60
22006;DHT22;11167;46.988;15.470;2022-11-15T04:16:21;11.10;86.60
22006;DHT22;11167;46.988;15.470;2022-11-15T04:18:23;11.10;86.60
22006;DHT22;11167;46.988;15.470;2022-11-15T04:20:27;11.10;86.60
22006;DHT22;11167;46.988;15.470;2022-11-15T04:22:47;11.10;86.60
22006;DHT22;11167;46.988;15.470;2022-11-15T04:25:06;11.10;86.60
22006;DHT22;11167;46.988;15.470;2022-11-15T04:27:08;11.10;86.70
22006;DHT22;11167;46.988;15.470;2022-11-15T04:29:09;11.00;86.60
22006;DHT22;11167;46.988;15.470;2022-11-15T04:31:28;11.00;86.60
22006;DHT22;11167;46.988;15.470;2022-11-15T04:33:30;11.00;86.60
22006;DHT22;11167;46.988;15.470;2022-11-15T04:35:31;11.00;86.60
22006;DHT22;11167;46.988;15.470;2022-11-15T04:37:32;11.00;87.40
22006;DHT22;11167;46.988;15.470;2022-11-15T04:39:33;11.00;86.70
22006;DHT22;11167;46.988;15.470;2022-11-15T04:41:34;11.00;86.70
22006;DHT22;11167;46.988;15.470;2022-11-15T04:43:36;11.00;86.70
22006;DHT22;11167;46.988;15.470;2022-11-15T04:45:37;11.00;86.70
22006;DHT22;11167;46.988;15.470;2022-11-15T04:47:38;11.00;87.60
22006;DHT22;11167;46.988;15.470;2022-11-15T04:49:39;11.00;86.80
22006;DHT22;11167;46.988;15.470;2022-11-15T04:51:40;11.00;86.70
22006;DHT22;11167;46.988;15.470;2022-11-15T04:53:41;11.00;86.70
22006;DHT22;11167;46.988;15.470;2022-11-15T04:55:46;11.00;86.70
22006;DHT22;11167;46.988;15.470;2022-11-15T04:57:47;11.00;86.70
22006;DHT22;11167;46.988;15.470;2022-11-15T04:59:48;11.00;86.70
22006;DHT22;11167;46.988;15.470;2022-11-15T05:01:49;11.00;86.70
22006;DHT22;11167;46.988;15.470;2022-11-15T05:03:52;11.00;86.80
22006;DHT22;11167;46.988;15.470;2022-11-15T05:06:17;11.00;86.80
22006;DHT22;11167;46.988;15.470;2022-11-15T05:08:18;11.00;86.80
22006;DHT22;11167;46.988;15.470;2022-11-15T05:10:19;11.00;86.80
22006;DHT22;11167;46.988;15.470;2022-11-15T05:12:21;11.00;86.80
22006;DHT22;11167;46.988;15.470;2022-11-15T05:14:22;11.00;86.80
22006;DHT22;11167;46.988;15.470;2022-11-15T05:16:24;11.00;87.60
22006;DHT22;11167;46.988;15.470;2022-11-15T05:18:26;10.90;86.70
22006;DHT22;11167;46.988;15.470;2022-11-15T05:20:27;10.90;86.70
22006;DHT22;11167;46.988;15.470;2022-11-15T05:22:28;11.00;86.90
22006;DHT22;11167;46.988;15.470;2022-11-15T05:24:29;11.00;86.80
22006;DHT22;11167;46.988;15.470;2022-11-15T05:26:32;11.00;86.80
22006;DHT22;11167;46.988;15.470;2022-11-15T05:28:36;11.00;86.80
22006;DHT22;11167;46.988;15.470;2022-11-15T05:31:05;11.00;86.80
22006;DHT22;11167;46.988;15.470;2022-11-15T05:33:03;10.90;86.70
22006;DHT22;11167;46.988;15.470;2022-11-15T05:35:06;11.00;86.80
22006;DHT22;11167;46.988;15.470;2022-11-15T05:37:09;11.00;86.90
22006;DHT22;11167;46.988;15.470;2022-11-15T05:39:11;10.90;86.90
22006;DHT22;11167;46.988;15.470;2022-11-15T05:41:13;10.90;86.80
22006;DHT22;11167;46.988;15.470;2022-11-15T05:43:15;10.90;86.90
22006;DHT22;11167;46.988;15.470;2022-11-15T05:45:16;10.90;86.80
22006;DHT22;11167;46.988;15.470;2022-11-15T05:47:23;10.90;86.80
22006;DHT22;11167;46.988;15.470;2022-11-15T05:49:28;10.90;86.90
22006;DHT22;11167;46.988;15.470;2022-11-15T05:51:30;10.90;86.80
22006;DHT22;11167;46.988;15.470;2022-11-15T05:53:35;10.90;86.90
22006;DHT22;11167;46.988;15.470;2022-11-15T05:55:38;10.90;86.80
22006;DHT22;11167;46.988;15.470;2022-11-15T05:57:40;10.90;87.00
22006;DHT22;11167;46.988;15.470;2022-11-15T05:59:42;10.90;86.90
22006;DHT22;11167;46.988;15.470;2022-11-15T06:01:44;10.90;87.00
22006;DHT22;11167;46.988;15.470;2022-11-15T06:03:45;10.90;86.90
22006;DHT22;11167;46.988;15.470;2022-11-15T06:05:46;10.90;86.90
22006;DHT22;11167;46.988;15.470;2022-11-15T06:07:47;10.90;86.90
22006;DHT22;11167;46.988;15.470;2022-11-15T06:09:48;10.90;86.90
22006;DHT22;11167;46.988;15.470;2022-11-15T06:11:50;10.90;86.90
22006;DHT22;11167;46.988;15.470;2022-11-15T06:13:51;10.90;86.90
22006;DHT22;11167;46.988;15.470;2022-11-15T06:15:55;10.90;86.90
22006;DHT22;11167;46.988;15.470;2022-11-15T06:17:57;10.90;86.90
22006;DHT22;11167;46.988;15.470;2022-11-15T06:19:58;10.90;87.00
22006;DHT22;11167;46.988;15.470;2022-11-15T06:21:59;10.90;87.00
22006;DHT22;11167;46.988;15.470;2022-11-15T06:24:00;10.90;86.90
22006;DHT22;11167;46.988;15.470;2022-11-15T06:26:02;10.90;87.10
22006;DHT22;11167;46.988;15.470;2022-11-15T06:28:04;10.90;87.00
22006;DHT22;11167;46.988;15.470;2022-11-15T06:30:05;10.90;87.00
22006;DHT22;11167;46.988;15.470;2022-11-15T06:32:07;10.90;87.00
22006;DHT22;11167;46.988;15.470;2022-11-15T06:34:08;10.90;87.00
22006;DHT22;11167;46.988;15.470;2022-11-15T06:36:12;10.90;87.00
22006;DHT22;11167;46.988;15.470;2022-11-15T06:38:15;10.90;87.00
22006;DHT22;11167;46.988;15.470;2022-11-15T06:40:16;10.90;87.00
22006;DHT22;11167;46.988;15.470;2022-11-15T06:42:17;10.90;87.90
22006;DHT22;11167;46.988;15.470;2022-11-15T06:44:18;10.90;87.10
22006;DHT22;11167;46.988;15.470;2022-11-15T06:46:20;10.90;87.10
22006;DHT22;11167;46.988;15.470;2022-11-15T06:48:21;10.90;87.40
22006;DHT22;11167;46.988;15.470;2022-11-15T06:50:22;10.80;87.00
22006;DHT22;11167;46.988;15.470;2022-11-15T06:52:23;10.80;87.00
22006;DHT22;11167;46.988;15.470;2022-11-15T06:54:24;10.80;87.00
22006;DHT22;11167;46.988;15.470;2022-11-15T06:56:25;10.80;87.00
22006;DHT22;11167;46.988;15.470;2022-11-15T06:58:28;10.80;87.00
22006;DHT22;11167;46.988;15.470;2022-11-15T07:00:30;10.80;87.00
22006;DHT22;11167;46.988;15.470;2022-11-15T07:02:31;10.80;87.00
22006;DHT22;11167;46.988;15.470;2022-11-15T07:04:34;10.80;87.00
22006;DHT22;11167;46.988;15.470;2022-11-15T07:06:35;10.80;87.00
22006;DHT22;11167;46.988;15.470;2022-11-15T07:08:37;10.80;87.00
22006;DHT22;11167;46.988;15.470;2022-11-15T07:10:39;10.80;87.10
22006;DHT22;11167;46.988;15.470;2022-11-15T07:12:40;10.80;87.00
22006;DHT22;11167;46.988;15.470;2022-11-15T07:14:41;10.80;87.00
22006;DHT22;11167;46.988;15.470;2022-11-15T07:16:42;10.80;87.00
22006;DHT22;11167;46.988;15.470;2022-11-15T07:18:43;10.80;87.20
22006;DHT22;11167;46.988;15.470;2022-11-15T07:20:44;10.80;87.00
22006;DHT22;11167;46.988;15.470;2022-11-15T07:22:45;10.80;87.00
22006;DHT22;11167;46.988;15.470;2022-11-15T07:24:47;10.80;87.00
22006;DHT22;11167;46.988;15.470;2022-11-15T07:26:48;10.80;87.00
22006;DHT22;11167;46.988;15.470;2022-11-15T07:28:49;10.80;87.00
22006;DHT22;11167;46.988;15.470;2022-11-15T07:30:50;10.80;87.00
22006;DHT22;11167;46.988;15.470;2022-11-15T07:32:58;10.80;87.10
22006;DHT22;11167;46.988;15.470;2022-11-15T07:35:00;10.80;86.50
22006;DHT22;11167;46.988;15.470;2022-11-15T07:37:01;10.80;87.10
22006;DHT22;11167;46.988;15.470;2022-11-15T07:39:02;10.80;87.00
22006;DHT22;11167;46.988;15.470;2022-11-15T07:41:04;10.80;87.70
22006;DHT22;11167;46.988;15.470;2022-11-15T07:43:07;10.80;87.10
22006;DHT22;11167;46.988;15.470;2022-11-15T07:45:09;10.80;87.20
22006;DHT22;11167;46.988;15.470;2022-11-15T07:47:10;10.80;87.10
22006;DHT22;11167;46.988;15.470;2022-11-15T07:49:11;10.80;87.20
22006;DHT22;11167;46.988;15.470;2022-11-15T07:51:13;10.80;87.10
22006;DHT22;11167;46.988;15.470;2022-11-15T07:53:17;10.80;87.20
22006;DHT22;11167;46.988;15.470;2022-11-15T07:55:18;10.80;87.20
22006;DHT22;11167;46.988;15.470;2022-11-15T07:57:19;10.80;87.20
22006;DHT22;11167;46.988;15.470;2022-11-15T07:59:21;10.80;87.20
22006;DHT22;11167;46.988;15.470;2022-11-15T08:01:22;10.80;87.20
22006;DHT22;11167;46.988;15.470;2022-11-15T08:03:23;10.80;87.20
22006;DHT22;11167;46.988;15.470;2022-11-15T08:05:24;10.80;87.20
22006;DHT22;11167;46.988;15.470;2022-11-15T08:07:31;10.80;87.20
22006;DHT22;11167;46.988;15.470;2022-11-15T08:09:32;10.80;87.20
22006;DHT22;11167;46.988;15.470;2022-11-15T08:11:33;10.80;87.20
22006;DHT22;11167;46.988;15.470;2022-11-15T08:13:34;10.80;88.00
22006;DHT22;11167;46.988;15.470;2022-11-15T08:15:37;10.80;87.30
22006;DHT22;11167;46.988;15.470;2022-11-15T08:17:38;10.80;87.20
22006;DHT22;11167;46.988;15.470;2022-11-15T08:19:39;10.80;88.00
22006;DHT22;11167;46.988;15.470;2022-11-15T08:21:40;10.80;87.30
22006;DHT22;11167;46.988;15.470;2022-11-15T08:23:41;10.80;87.20
22006;DHT22;11167;46.988;15.470;2022-11-15T08:25:43;10.80;87.20
22006;DHT22;11167;46.988;15.470;2022-11-15T08:27:44;10.80;87.20
22006;DHT22;11167;46.988;15.470;2022-11-15T08:29:47;10.90;87.60
22006;DHT22;11167;46.988;15.470;2022-11-15T08:31:48;10.80;87.20
22006;DHT22;11167;46.988;15.470;2022-11-15T08:33:49;10.80;87.20
22006;DHT22;11167;46.988;15.470;2022-11-15T08:35:50;10.90;87.40
22006;DHT22;11167;46.988;15.470;2022-11-15T08:37:55;10.90;87.30
22006;DHT22;11167;46.988;15.470;2022-11-15T08:39:56;10.80;87.30
22006;DHT22;11167;46.988;15.470;2022-11-15T08:41:57;10.80;87.20
22006;DHT22;11167;46.988;15.470;2022-11-15T08:43:58;10.90;87.40
22006;DHT22;11167;46.988;15.470;2022-11-15T08:46:00;10.90;87.40
22006;DHT22;11167;46.988;15.470;2022-11-15T08:48:02;10.90;87.40
22006;DHT22;11167;46.988;15.470;2022-11-15T08:50:03;10.80;87.40
22006;DHT22;11167;46.988;15.470;2022-11-15T08:52:05;10.90;87.40
22006;DHT22;11167;46.988;15.470;2022-11-15T08:54:06;10.90;87.40
22006;DHT22;11167;46.988;15.470;2022-11-15T08:56:10;10.90;87.50
22006;DHT22;11167;46.988;15.470;2022-11-15T08:58:11;10.90;87.40
22006;DHT22;11167;46.988;15.470;2022-11-15T09:00:13;10.90;87.40
22006;DHT22;11167;46.988;15.470;2022-11-15T09:02:15;10.90;87.50
22006;DHT22;11167;46.988;15.470;2022-11-15T09:04:16;10.90;87.40
22006;DHT22;11167;46.988;15.470;2022-11-15T09:06:17;10.90;88.20
22006;DHT22;11167;46.988;15.470;2022-11-15T09:08:19;10.90;87.50
22006;DHT22;11167;46.988;15.470;2022-11-15T09:10:21;10.90;87.40
22006;DHT22;11167;46.988;15.470;2022-11-15T09:12:22;10.90;87.60
22006;DHT22;11167;46.988;15.470;2022-11-15T09:14:23;10.90;87.40
22006;DHT22;11167;46.988;15.470;2022-11-15T09:16:24;10.90;88.30
22006;DHT22;11167;46.988;15.470;2022-11-15T09:18:25;10.90;87.40
22006;DHT22;11167;46.988;15.470;2022-11-15T09:20:26;10.90;87.40
22006;DHT22;11167;46.988;15.470;2022-11-15T09:22:28;10.90;87.60
22006;DHT22;11167;46.988;15.470;2022-11-15T09:24:29;10.90;87.40
22006;DHT22;11167;46.988;15.470;2022-11-15T09:26:30;10.90;87.60
22006;DHT22;11167;46.988;15.470;2022-11-15T09:28:32;10.90;87.50
22006;DHT22;11167;46.988;15.470;2022-11-15T09:30:33;10.90;87.40
22006;DHT22;11167;46.988;15.470;2022-11-15T09:32:34;10.90;87.40
22006;DHT22;11167;46.988;15.470;2022-11-15T09:34:36;10.90;87.50
22006;DHT22;11167;46.988;15.470;2022-11-15T09:36:37;10.90;87.50
22006;DHT22;11167;46.988;15.470;2022-11-15T09:38:39;10.90;87.60
22006;DHT22;11167;46.988;15.470;2022-11-15T09:40:40;10.90;87.50
22006;DHT22;11167;46.988;15.470;2022-11-15T09:45:28;10.90;87.50
22006;DHT22;11167;46.988;15.470;2022-11-15T09:49:53;10.90;87.50
22006;DHT22;11167;46.988;15.470;2022-11-15T09:51:56;10.90;87.60
22006;DHT22;11167;46.988;15.470;2022-11-15T09:56:31;10.90;87.60
22006;DHT22;11167;46.988;15.470;2022-11-15T10:01:16;11.00;87.70
22006;DHT22;11167;46.988;15.470;2022-11-15T10:05:28;10.90;87.70
22006;DHT22;11167;46.988;15.470;2022-11-15T10:07:41;10.90;87.70
22006;DHT22;11167;46.988;15.470;2022-11-15T10:09:47;10.90;88.50
22006;DHT22;11167;46.988;15.470;2022-11-15T10:11:48;11.00;87.90
22006;DHT22;11167;46.988;15.470;2022-11-15T10:13:52;10.90;87.70
22006;DHT22;11167;46.988;15.470;2022-11-15T10:15:59;11.00;87.80
22006;DHT22;11167;46.988;15.470;2022-11-15T10:18:08;10.90;87.80
22006;DHT22;11167;46.988;15.470;2022-11-15T10:20:20;11.00;87.80
22006;DHT22;11167;46.988;15.470;2022-11-15T10:24:35;11.00;87.80
22006;DHT22;11167;46.988;15.470;2022-11-15T10:26:37;11.00;88.20
22006;DHT22;11167;46.988;15.470;2022-11-15T10:28:38;11.00;88.00
22006;DHT22;11167;46.988;15.470;2022-11-15T10:30:42;11.00;87.90
22006;DHT22;11167;46.988;15.470;2022-11-15T10:32:44;11.00;87.90
22006;DHT22;11167;46.988;15.470;2022-11-15T10:34:47;11.00;88.20
22006;DHT22;11167;46.988;15.470;2022-11-15T10:36:56;11.00;88.00
22006;DHT22;11167;46.988;15.470;2022-11-15T10:38:58;11.00;88.00
22006;DHT22;11167;46.988;15.470;2022-11-15T10:41:06;11.00;88.00
22006;DHT22;11167;46.988;15.470;2022-11-15T10:45:30;11.10;88.00
22006;DHT22;11167;46.988;15.470;2022-11-15T10:47:32;11.10;88.00
22006;DHT22;11167;46.988;15.470;2022-11-15T10:49:34;11.10;88.10
22006;DHT22;11167;46.988;15.470;2022-11-15T10:51:40;11.10;88.00
22006;DHT22;11167;46.988;15.470;2022-11-15T10:53:43;11.10;88.00
22006;DHT22;11167;46.988;15.470;2022-11-15T10:55:50;11.10;88.00
22006;DHT22;11167;46.988;15.470;2022-11-15T10:57:59;11.10;88.00
22006;DHT22;11167;46.988;15.470;2022-11-15T11:02:30;11.10;88.10
22006;DHT22;11167;46.988;15.470;2022-11-15T11:04:49;11.10;88.00
22006;DHT22;11167;46.988;15.470;2022-11-15T11:09:03;11.10;88.00
22006;DHT22;11167;46.988;15.470;2022-11-15T11:11:05;11.10;88.10
22006;DHT22;11167;46.988;15.470;2022-11-15T11:13:21;11.10;88.10
22006;DHT22;11167;46.988;15.470;2022-11-15T11:15:19;11.10;88.00
22006;DHT22;11167;46.988;15.470;2022-11-15T11:19:51;11.10;88.00
22006;DHT22;11167;46.988;15.470;2022-11-15T11:29:02;11.20;88.10
22006;DHT22;11167;46.988;15.470;2022-11-15T11:35:19;11.20;88.10
22006;DHT22;11167;46.988;15.470;2022-11-15T11:37:30;11.20;88.10
22006;DHT22;11167;46.988;15.470;2022-11-15T11:49:07;11.20;88.10
22006;DHT22;11167;46.988;15.470;2022-11-15T11:51:34;11.20;88.20
22006;DHT22;11167;46.988;15.470;2022-11-15T11:55:32;11.20;88.20
22006;DHT22;11167;46.988;15.470;2022-11-15T11:59:48;11.20;88.20
22006;DHT22;11167;46.988;15.470;2022-11-15T12:01:50;11.20;88.20
22006;DHT22;11167;46.988;15.470;2022-11-15T12:06:36;11.20;88.20
22006;DHT22;11167;46.988;15.470;2022-11-15T12:08:48;11.30;88.20
22006;DHT22;11167;46.988;15.470;2022-11-15T12:11:06;11.30;88.30
22006;DHT22;11167;46.988;15.470;2022-11-15T12:13:16;11.20;88.20
22006;DHT22;11167;46.988;15.470;2022-11-15T12:15:20;11.20;88.20
22006;DHT22;11167;46.988;15.470;2022-11-15T12:17:28;11.30;88.20
22006;DHT22;11167;46.988;15.470;2022-11-15T12:19:31;11.30;88.30
22006;DHT22;11167;46.988;15.470;2022-11-15T12:21:52;11.30;88.30
22006;DHT22;11167;46.988;15.470;2022-11-15T12:23:52;11.30;88.30
22006;DHT22;11167;46.988;15.470;2022-11-15T12:26:06;11.30;88.30
22006;DHT22;11167;46.988;15.470;2022-11-15T12:30:20;11.30;88.30
22006;DHT22;11167;46.988;15.470;2022-11-15T12:32:38;11.30;88.30
22006;DHT22;11167;46.988;15.470;2022-11-15T12:34:40;11.30;88.30
22006;DHT22;11167;46.988;15.470;2022-11-15T12:36:43;11.30;88.30
22006;DHT22;11167;46.988;15.470;2022-11-15T12:39:01;11.30;88.20
22006;DHT22;11167;46.988;15.470;2022-11-15T12:41:15;11.30;88.60
22006;DHT22;11167;46.988;15.470;2022-11-15T12:45:34;11.30;88.40
22006;DHT22;11167;46.988;15.470;2022-11-15T12:47:35;11.30;88.40
22006;DHT22;11167;46.988;15.470;2022-11-15T12:53:53;11.30;88.30
22006;DHT22;11167;46.988;15.470;2022-11-15T12:56:09;11.40;88.30
22006;DHT22;11167;46.988;15.470;2022-11-15T12:58:44;11.40;88.40
22006;DHT22;11167;46.988;15.470;2022-11-15T13:00:47;11.30;88.30
22006;DHT22;11167;46.988;15.470;2022-11-15T13:02:48;11.40;88.30
22006;DHT22;11167;46.988;15.470;2022-11-15T13:04:50;11.40;88.40
22006;DHT22;11167;46.988;15.470;2022-11-15T13:07:00;11.40;88.40
22006;DHT22;11167;46.988;15.470;2022-11-15T13:09:02;11.40;88.30
22006;DHT22;11167;46.988;15.470;2022-11-15T13:11:41;11.40;88.30
22006;DHT22;11167;46.988;15.470;2022-11-15T13:13:44;11.40;88.20
22006;DHT22;11167;46.988;15.470;2022-11-15T13:15:58;11.40;88.20
22006;DHT22;11167;46.988;15.470;2022-11-15T13:17:57;11.40;88.30
22006;DHT22;11167;46.988;15.470;2022-11-15T13:22:15;11.40;88.30
22006;DHT22;11167;46.988;15.470;2022-11-15T13:24:37;11.40;88.20
22006;DHT22;11167;46.988;15.470;2022-11-15T13:26:40;11.40;88.30
22006;DHT22;11167;46.988;15.470;2022-11-15T13:28:49;11.40;88.20
22006;DHT22;11167;46.988;15.470;2022-11-15T13:30:54;11.40;88.30
22006;DHT22;11167;46.988;15.470;2022-11-15T13:32:58;11.40;88.30
22006;DHT22;11167;46.988;15.470;2022-11-15T13:35:01;11.40;88.20
22006;DHT22;11167;46.988;15.470;2022-11-15T13:37:02;11.40;88.20
22006;DHT22;11167;46.988;15.470;2022-11-15T13:39:26;11.40;88.20
22006;DHT22;11167;46.988;15.470;2022-11-15T13:41:32;11.40;88.20
22006;DHT22;11167;46.988;15.470;2022-11-15T13:43:36;11.40;88.20
22006;DHT22;11167;46.988;15.470;2022-11-15T13:45:38;11.40;88.20
22006;DHT22;11167;46.988;15.470;2022-11-15T13:47:39;11.40;88.20
22006;DHT22;11167;46.988;15.470;2022-11-15T13:49:41;11.40;88.30
22006;DHT22;11167;46.988;15.470;2022-11-15T13:51:48;11.40;88.30
22006;DHT22;11167;46.988;15.470;2022-11-15T13:54:20;11.40;88.20
22006;DHT22;11167;46.988;15.470;2022-11-15T13:56:01;11.50;88.30
22006;DHT22;11167;46.988;15.470;2022-11-15T13:58:04;11.40;88.20
22006;DHT22;11167;46.988;15.470;2022-11-15T14:02:33;11.40;88.40
22006;DHT22;11167;46.988;15.470;2022-11-15T14:04:38;11.40;88.20
22006;DHT22;11167;46.988;15.470;2022-11-15T14:06:45;11.40;88.30
22006;DHT22;11167;46.988;15.470;2022-11-15T14:09:29;11.40;88.10
22006;DHT22;11167;46.988;15.470;2022-11-15T14:11:15;11.40;88.10
22006;DHT22;11167;46.988;15.470;2022-11-15T14:13:31;11.50;88.30
22006;DHT22;11167;46.988;15.470;2022-11-15T14:15:34;11.50;88.20
22006;DHT22;11167;46.988;15.470;2022-11-15T14:17:36;11.50;88.20